Time;durP1;ratioP1;P1;durP2;ratioP2;P2;SDS_P1;SDS_P2;PMS_P1;PMS_P2;Temp;Humidity;BMP_temperature;BMP_pressure;BME280_temperature;BME280_humidity;BME280_pressure;Samples;Min_cycle;Max_cycle;Signal;HPM_P1;HPM_P2
2023/04/02 00:01:28;;;;;;;16.63;9.97;;;;;;;;;;766666;183;629896;-78
2023/04/02 00:04:07;;;;;;;14.93;10.67;;;;;;;;;;754311;184;644979;-79
2023/04/02 00:06:32;;;;;;;14.70;10.63;;;;;;;;;;765921;181;637497;-77
2023/04/02 00:09:00;;;;;;;20.83;10.03;;;;;;;;;;764950;181;690480;-79
2023/04/02 00:11:24;;;;;;;11.80;9.27;;;;;;;;;;758017;183;621848;-78
2023/04/02 00:13:50;;;;;;;10.37;8.97;;;;;;;;;;757534;184;645064;-79
2023/04/02 00:16:16;;;;;;;13.90;9.60;;;;;;;;;;758222;182;629525;-77
2023/04/02 00:18:42;;;;;;;13.60;10.40;;;;;;;;;;761881;184;635402;-79
2023/04/02 00:21:08;;;;;;;25.27;9.70;;;;;;;;;;755367;184;638398;-79
2023/04/02 00:23:34;;;;;;;51.33;11.33;;;;;;;;;;751545;185;630231;-79
2023/04/02 00:26:00;;;;;;;13.57;10.90;;;;;;;;;;770709;181;627062;-80
2023/04/02 00:28:25;;;;;;;17.23;9.83;;;;;;;;;;761136;182;634284;-78
2023/04/02 00:30:52;;;;;;;12.47;9.47;;;;;;;;;;765024;182;636028;-79
2023/04/02 00:33:18;;;;;;;13.77;9.20;;;;;;;;;;756876;183;634329;-78
2023/04/02 00:35:44;;;;;;;13.07;8.20;;;;;;;;;;765595;181;630463;-79
2023/04/02 00:38:10;;;;;;;11.10;8.57;;;;;;;;;;750125;182;623930;-79
2023/04/02 00:40:35;;;;;;;13.00;8.57;;;;;;;;;;750343;187;633928;-78
2023/04/02 00:43:02;;;;;;;11.43;8.77;;;;;;;;;;762874;183;672810;-78
2023/04/02 00:45:29;;;;;;;13.53;8.70;;;;;;;;;;759656;183;635369;-79
2023/04/02 00:47:54;;;;;;;14.40;9.37;;;;;;;;;;754243;182;627199;-78
2023/04/02 00:50:20;;;;;;;14.73;9.87;;;;;;;;;;767068;182;660792;-79
2023/04/02 00:52:46;;;;;;;17.30;9.97;;;;;;;;;;753689;182;633802;-79
2023/04/02 00:55:12;;;;;;;13.80;9.33;;;;;;;;;;763922;182;639841;-79
2023/04/02 00:57:37;;;;;;;14.03;9.17;;;;;;;;;;751667;184;636562;-78
2023/04/02 01:00:24;;;;;;;14.20;10.13;;;;;;;;;;766821;182;651784;-78
2023/04/02 01:02:56;;;;;;;14.13;9.23;;;;;;;;;;771367;183;638118;-78
2023/04/02 01:05:22;;;;;;;14.13;10.27;;;;;;;;;;762813;183;669867;-79
2023/04/02 01:07:50;;;;;;;15.40;9.30;;;;;;;;;;760000;181;628186;-79
2023/04/02 01:10:18;;;;;;;16.80;9.80;;;;;;;;;;763312;180;678885;-79
2023/04/02 01:12:44;;;;;;;13.87;10.53;;;;;;;;;;767881;181;637357;-79
2023/04/02 01:15:14;;;;;;;16.00;9.10;;;;;;;;;;763047;183;629616;-79
2023/04/02 01:17:47;;;;;;;13.53;9.67;;;;;;;;;;763445;181;630595;-80
2023/04/02 01:20:15;;;;;;;10.13;9.03;;;;;;;;;;760777;184;645082;-79
2023/04/02 01:22:46;;;;;;;15.03;10.20;;;;;;;;;;750708;186;628948;-78
2023/04/02 01:25:10;;;;;;;11.27;8.70;;;;;;;;;;758878;183;633619;-79
2023/04/02 01:27:38;;;;;;;12.17;9.10;;;;;;;;;;767650;181;638725;-79
2023/04/02 01:30:06;;;;;;;15.00;8.90;;;;;;;;;;762107;184;635248;-77
2023/04/02 01:32:30;;;;;;;12.80;8.30;;;;;;;;;;753308;181;623157;-79
2023/04/02 01:34:57;;;;;;;12.27;8.30;;;;;;;;;;749678;184;630638;-80
2023/04/02 01:37:22;;;;;;;12.33;9.67;;;;;;;;;;751431;185;628643;-79
2023/04/02 01:39:49;;;;;;;13.77;10.30;;;;;;;;;;751173;186;625156;-79
2023/04/02 01:42:18;;;;;;;13.90;9.40;;;;;;;;;;758502;182;634561;-79
2023/04/02 01:44:48;;;;;;;15.43;8.90;;;;;;;;;;760123;184;630813;-79
2023/04/02 01:47:14;;;;;;;12.97;9.50;;;;;;;;;;764392;181;626901;-78
2023/04/02 01:49:40;;;;;;;13.00;9.13;;;;;;;;;;768093;181;620754;-77
2023/04/02 01:52:06;;;;;;;13.00;10.03;;;;;;;;;;762543;180;628366;-78
2023/04/02 01:54:31;;;;;;;10.53;7.87;;;;;;;;;;754996;183;659152;-80
2023/04/02 01:56:57;;;;;;;10.53;7.43;;;;;;;;;;748207;184;633340;-79
2023/04/02 01:59:23;;;;;;;13.07;8.50;;;;;;;;;;762071;181;645789;-79
2023/04/02 02:01:51;;;;;;;11.30;7.00;;;;;;;;;;763127;181;636573;-79
2023/04/02 02:04:17;;;;;;;12.77;8.10;;;;;;;;;;768115;181;638238;-80
2023/04/02 02:06:42;;;;;;;10.60;7.20;;;;;;;;;;753615;183;637314;-80
2023/04/02 02:09:08;;;;;;;12.53;7.27;;;;;;;;;;752425;182;627408;-78
2023/04/02 02:11:35;;;;;;;14.83;9.03;;;;;;;;;;757883;183;629606;-80
2023/04/02 02:14:00;;;;;;;11.90;8.27;;;;;;;;;;756119;184;628635;-79
2023/04/02 02:16:26;;;;;;;9.97;8.30;;;;;;;;;;743039;185;638343;-79
2023/04/02 02:18:54;;;;;;;15.73;7.67;;;;;;;;;;748944;186;633499;-78
2023/04/02 02:21:21;;;;;;;18.10;8.57;;;;;;;;;;756044;184;640092;-79
2023/04/02 02:23:47;;;;;;;15.50;8.70;;;;;;;;;;753708;185;633072;-79
2023/04/02 02:26:13;;;;;;;13.00;7.77;;;;;;;;;;759229;183;625741;-78
2023/04/02 02:28:39;;;;;;;16.63;9.03;;;;;;;;;;757904;183;624806;-79
2023/04/02 02:31:04;;;;;;;12.77;8.80;;;;;;;;;;764040;182;634109;-78
2023/04/02 02:33:35;;;;;;;13.70;9.27;;;;;;;;;;749586;184;641173;-79
2023/04/02 02:36:04;;;;;;;11.83;8.97;;;;;;;;;;750854;186;628513;-78
2023/04/02 02:38:48;;;;;;;11.27;7.80;;;;;;;;;;764744;183;624307;-78
2023/04/02 02:41:16;;;;;;;12.55;7.18;;;;;;;;;;754813;183;637515;-80
2023/04/02 02:43:41;;;;;;;13.47;7.37;;;;;;;;;;744252;186;638211;-80
2023/04/02 02:46:07;;;;;;;12.93;6.97;;;;;;;;;;750858;186;641102;-79
2023/04/02 02:48:33;;;;;;;13.07;8.03;;;;;;;;;;762309;181;628343;-80
2023/04/02 02:50:59;;;;;;;10.00;7.33;;;;;;;;;;766330;182;636746;-79
2023/04/02 02:53:25;;;;;;;11.03;8.20;;;;;;;;;;769610;182;631901;-79
2023/04/02 02:55:51;;;;;;;15.20;8.43;;;;;;;;;;770007;180;637923;-78
2023/04/02 02:58:17;;;;;;;14.33;8.27;;;;;;;;;;760093;182;613058;-79
2023/04/02 03:00:42;;;;;;;9.93;7.80;;;;;;;;;;753413;182;633861;-80
2023/04/02 03:03:08;;;;;;;10.10;7.57;;;;;;;;;;764094;179;652024;-79
2023/04/02 03:05:35;;;;;;;11.18;7.87;;;;;;;;;;769545;180;628779;-80
2023/04/02 03:08:01;;;;;;;16.03;9.07;;;;;;;;;;764376;181;614863;-79
2023/04/02 03:10:29;;;;;;;12.50;10.00;;;;;;;;;;755356;183;636648;-79
2023/04/02 03:13:14;;;;;;;12.07;9.20;;;;;;;;;;757023;181;631462;-78
2023/04/02 03:15:55;;;;;;;12.67;9.53;;;;;;;;;;754820;184;639933;-79
2023/04/02 03:18:24;;;;;;;11.00;8.50;;;;;;;;;;764959;181;622742;-79
2023/04/02 03:20:49;;;;;;;14.73;9.50;;;;;;;;;;764656;181;624090;-78
2023/04/02 03:23:23;;;;;;;14.57;9.43;;;;;;;;;;753702;182;628356;-80
2023/04/02 03:25:50;;;;;;;13.97;9.73;;;;;;;;;;758411;181;636059;-77
2023/04/02 03:28:16;;;;;;;15.40;10.60;;;;;;;;;;758783;182;653983;-79
2023/04/02 03:30:42;;;;;;;13.30;10.30;;;;;;;;;;766384;182;640051;-78
2023/04/02 03:33:24;;;;;;;24.20;11.50;;;;;;;;;;754670;183;652489;-79
2023/04/02 03:35:55;;;;;;;17.77;11.93;;;;;;;;;;770614;181;680477;-80
2023/04/02 03:38:22;;;;;;;11.63;9.60;;;;;;;;;;751048;184;691100;-79
2023/04/02 03:41:03;;;;;;;14.70;11.30;;;;;;;;;;766168;182;634634;-77
2023/04/02 03:43:29;;;;;;;13.40;10.90;;;;;;;;;;753277;182;651882;-79
2023/04/02 03:45:57;;;;;;;13.63;10.40;;;;;;;;;;771885;182;625925;-78
2023/04/02 03:48:24;;;;;;;13.60;9.97;;;;;;;;;;762908;182;671376;-78
2023/04/02 03:50:50;;;;;;;14.60;9.57;;;;;;;;;;755290;182;664643;-80
2023/04/02 03:53:16;;;;;;;16.80;10.50;;;;;;;;;;758369;185;639305;-77
2023/04/02 03:55:42;;;;;;;17.97;10.80;;;;;;;;;;749295;185;764219;-78
2023/04/02 03:58:10;;;;;;;15.60;10.23;;;;;;;;;;749929;183;648620;-77
2023/04/02 04:00:40;;;;;;;12.13;10.50;;;;;;;;;;753682;183;701786;-77
2023/04/02 04:03:19;;;;;;;12.40;10.10;;;;;;;;;;755511;185;627525;-79
2023/04/02 04:05:47;;;;;;;22.17;10.63;;;;;;;;;;759795;183;774161;-77
2023/04/02 04:08:13;;;;;;;17.50;9.97;;;;;;;;;;759320;184;630516;-79
2023/04/02 04:10:39;;;;;;;16.80;10.27;;;;;;;;;;754433;183;680732;-78
2023/04/02 04:13:05;;;;;;;12.33;8.20;;;;;;;;;;754807;182;625578;-79
2023/04/02 04:15:35;;;;;;;12.90;9.40;;;;;;;;;;747500;186;626435;-79
2023/04/02 04:18:03;;;;;;;15.00;8.50;;;;;;;;;;755388;181;639008;-79
2023/04/02 04:20:29;;;;;;;14.53;8.97;;;;;;;;;;764421;181;625692;-80
2023/04/02 04:22:54;;;;;;;12.47;9.13;;;;;;;;;;763806;181;623219;-80
2023/04/02 04:25:28;;;;;;;13.30;10.00;;;;;;;;;;763041;181;627234;-79
2023/04/02 04:27:56;;;;;;;15.33;9.90;;;;;;;;;;753611;184;642247;-78
2023/04/02 04:30:24;;;;;;;12.87;9.33;;;;;;;;;;762314;182;701422;-80
2023/04/02 04:32:56;;;;;;;12.20;9.10;;;;;;;;;;768184;181;649483;-78
2023/04/02 04:35:23;;;;;;;15.47;9.60;;;;;;;;;;752059;184;786533;-79
2023/04/02 04:37:57;;;;;;;11.90;9.47;;;;;;;;;;753399;184;626339;-79
2023/04/02 04:40:25;;;;;;;16.93;11.33;;;;;;;;;;757664;185;649003;-77
2023/04/02 04:42:51;;;;;;;12.67;9.30;;;;;;;;;;765593;182;657124;-78
2023/04/02 04:45:23;;;;;;;11.53;8.50;;;;;;;;;;758523;184;652760;-79
2023/04/02 04:47:50;;;;;;;12.20;10.43;;;;;;;;;;763392;183;636055;-79
2023/04/02 04:50:16;;;;;;;13.63;9.97;;;;;;;;;;763960;183;626382;-79
2023/04/02 04:52:43;;;;;;;15.33;9.97;;;;;;;;;;757798;185;647013;-79
2023/04/02 04:55:14;;;;;;;12.90;10.37;;;;;;;;;;758353;183;644579;-79
2023/04/02 04:57:40;;;;;;;13.90;9.93;;;;;;;;;;761630;182;629087;-80
2023/04/02 05:00:06;;;;;;;13.80;10.97;;;;;;;;;;762511;182;630133;-79
2023/04/02 05:02:32;;;;;;;18.20;11.67;;;;;;;;;;760547;182;642689;-79
2023/04/02 05:04:57;;;;;;;14.47;9.53;;;;;;;;;;767344;182;619078;-77
2023/04/02 05:07:27;;;;;;;13.10;10.13;;;;;;;;;;766517;182;628308;-80
2023/04/02 05:09:57;;;;;;;15.07;11.97;;;;;;;;;;765374;180;677612;-79
2023/04/02 05:12:24;;;;;;;12.73;10.20;;;;;;;;;;748990;185;626291;-80
2023/04/02 05:14:50;;;;;;;15.57;10.70;;;;;;;;;;749620;182;656744;-78
2023/04/02 05:17:26;;;;;;;16.10;11.37;;;;;;;;;;757200;182;625803;-78
2023/04/02 05:19:52;;;;;;;14.40;11.90;;;;;;;;;;760585;182;656064;-79
2023/04/02 05:22:38;;;;;;;18.60;12.87;;;;;;;;;;760371;183;621509;-78
2023/04/02 05:25:09;;;;;;;15.50;12.23;;;;;;;;;;763514;183;978324;-78
2023/04/02 05:27:35;;;;;;;16.30;11.17;;;;;;;;;;759542;183;629004;-78
2023/04/02 05:30:04;;;;;;;15.90;11.20;;;;;;;;;;763008;182;636886;-79
2023/04/02 05:32:31;;;;;;;16.50;12.23;;;;;;;;;;753630;182;627052;-79
2023/04/02 05:34:57;;;;;;;13.43;11.73;;;;;;;;;;770145;176;634836;-78
2023/04/02 05:37:22;;;;;;;14.50;11.17;;;;;;;;;;762103;183;629686;-79
2023/04/02 05:39:49;;;;;;;16.40;11.30;;;;;;;;;;753572;185;641786;-79
2023/04/02 05:42:15;;;;;;;15.40;13.20;;;;;;;;;;768318;182;622133;-79
2023/04/02 05:44:41;;;;;;;12.63;11.00;;;;;;;;;;766893;181;632285;-79
2023/04/02 05:47:07;;;;;;;14.40;11.87;;;;;;;;;;758652;182;651541;-79
2023/04/02 05:49:34;;;;;;;15.33;12.33;;;;;;;;;;769594;182;652137;-80
2023/04/02 05:52:00;;;;;;;16.40;12.80;;;;;;;;;;756257;182;649453;-80
2023/04/02 05:54:31;;;;;;;20.50;15.33;;;;;;;;;;757676;184;625726;-79
2023/04/02 05:56:57;;;;;;;16.30;12.50;;;;;;;;;;754866;183;652932;-79
2023/04/02 05:59:25;;;;;;;22.47;16.07;;;;;;;;;;760585;182;619280;-80
2023/04/02 06:02:02;;;;;;;20.53;17.27;;;;;;;;;;765262;181;633886;-80
2023/04/02 06:04:26;;;;;;;21.00;16.53;;;;;;;;;;762107;182;641043;-79
2023/04/02 06:06:53;;;;;;;18.50;15.20;;;;;;;;;;769427;180;697390;-79
2023/04/02 06:09:18;;;;;;;16.43;13.83;;;;;;;;;;764446;184;640276;-80
2023/04/02 06:11:45;;;;;;;21.10;14.57;;;;;;;;;;754133;182;625243;-81
2023/04/02 06:14:11;;;;;;;19.90;14.00;;;;;;;;;;757430;183;633065;-79
2023/04/02 06:16:37;;;;;;;18.00;12.67;;;;;;;;;;762015;183;648108;-78
2023/04/02 06:19:03;;;;;;;18.67;12.53;;;;;;;;;;753753;181;631154;-80
2023/04/02 06:21:29;;;;;;;25.97;16.60;;;;;;;;;;760311;181;622759;-80
2023/04/02 06:23:55;;;;;;;18.53;15.20;;;;;;;;;;754772;184;629503;-79
2023/04/02 06:26:27;;;;;;;19.77;16.70;;;;;;;;;;759392;183;627603;-79
2023/04/02 06:28:53;;;;;;;20.60;14.30;;;;;;;;;;747620;185;628694;-80
2023/04/02 06:31:36;;;;;;;11.53;6.33;;;;;;;;;;734475;190;630759;-78
2023/04/02 06:34:02;;;;;;;4.80;2.90;;;;;;;;;;754092;183;640442;-78
2023/04/02 06:36:28;;;;;;;3.73;2.10;;;;;;;;;;765547;181;633271;-79
2023/04/02 06:38:55;;;;;;;6.37;2.00;;;;;;;;;;764829;181;624449;-79
2023/04/02 06:41:20;;;;;;;11.87;6.13;;;;;;;;;;756099;183;627276;-81
2023/04/02 06:43:46;;;;;;;9.30;6.10;;;;;;;;;;756701;182;632902;-79
2023/04/02 06:46:13;;;;;;;13.07;3.80;;;;;;;;;;759403;184;636681;-79
2023/04/02 06:48:39;;;;;;;15.00;7.93;;;;;;;;;;763513;182;640482;-78
2023/04/02 06:51:05;;;;;;;6.97;3.27;;;;;;;;;;764654;183;717730;-80
2023/04/02 06:53:41;;;;;;;5.67;2.67;;;;;;;;;;761971;182;631224;-79
2023/04/02 06:56:07;;;;;;;2.90;1.60;;;;;;;;;;765496;182;625962;-80
2023/04/02 06:58:33;;;;;;;7.40;3.40;;;;;;;;;;762900;181;797463;-79
2023/04/02 07:00:59;;;;;;;3.87;2.87;;;;;;;;;;751620;183;649712;-77
2023/04/02 07:03:26;;;;;;;5.37;3.27;;;;;;;;;;757582;184;681737;-80
2023/04/02 07:05:51;;;;;;;4.30;2.60;;;;;;;;;;755170;182;645143;-80
2023/04/02 07:08:17;;;;;;;5.97;3.20;;;;;;;;;;759599;182;630289;-77
2023/04/02 07:10:43;;;;;;;3.70;2.00;;;;;;;;;;767923;182;614974;-79
2023/04/02 07:13:09;;;;;;;3.37;2.20;;;;;;;;;;745914;184;644091;-79
2023/04/02 07:15:35;;;;;;;3.70;1.90;;;;;;;;;;748399;184;633354;-79
2023/04/02 07:18:01;;;;;;;6.80;2.77;;;;;;;;;;761791;182;634036;-80
2023/04/02 07:20:27;;;;;;;2.40;1.30;;;;;;;;;;766088;181;627013;-78
2023/04/02 07:22:53;;;;;;;6.67;2.47;;;;;;;;;;762565;182;629732;-76
2023/04/02 07:25:19;;;;;;;4.60;2.77;;;;;;;;;;761705;182;659308;-78
2023/04/02 07:27:44;;;;;;;6.20;3.00;;;;;;;;;;771475;181;626027;-77
2023/04/02 07:30:10;;;;;;;5.30;3.27;;;;;;;;;;762502;183;630783;-78
2023/04/02 07:32:37;;;;;;;4.33;3.30;;;;;;;;;;757306;183;645885;-79
2023/04/02 07:35:02;;;;;;;4.93;3.20;;;;;;;;;;754852;182;626172;-79
2023/04/02 07:37:28;;;;;;;4.00;2.33;;;;;;;;;;759705;183;643375;-78
2023/04/02 07:39:54;;;;;;;2.20;1.50;;;;;;;;;;755059;183;732292;-77
2023/04/02 07:42:20;;;;;;;3.27;1.70;;;;;;;;;;754500;185;632472;-80
2023/04/02 07:44:45;;;;;;;3.20;2.07;;;;;;;;;;760982;182;622925;-78
2023/04/02 07:47:11;;;;;;;3.03;2.20;;;;;;;;;;756328;182;630800;-78
2023/04/02 07:49:37;;;;;;;2.90;1.67;;;;;;;;;;765286;182;649343;-79
2023/04/02 07:52:03;;;;;;;3.30;2.53;;;;;;;;;;763525;182;650162;-78
2023/04/02 07:54:29;;;;;;;2.97;2.07;;;;;;;;;;760581;182;630949;-79
2023/04/02 07:56:55;;;;;;;3.27;2.37;;;;;;;;;;760120;182;683708;-79
2023/04/02 07:59:21;;;;;;;3.60;1.67;;;;;;;;;;771562;181;748787;-79
2023/04/02 08:01:47;;;;;;;2.50;1.50;;;;;;;;;;757582;182;655102;-76
2023/04/02 08:04:20;;;;;;;3.00;1.63;;;;;;;;;;761732;182;631369;-78
2023/04/02 08:06:46;;;;;;;2.93;2.10;;;;;;;;;;757110;182;640520;-78
2023/04/02 08:09:12;;;;;;;2.50;1.60;;;;;;;;;;766854;183;616233;-78
2023/04/02 08:11:39;;;;;;;4.13;2.30;;;;;;;;;;765342;182;627196;-77
2023/04/02 08:14:04;;;;;;;3.37;2.03;;;;;;;;;;763408;182;630037;-78
2023/04/02 08:16:36;;;;;;;2.50;1.70;;;;;;;;;;763702;181;630938;-79
2023/04/02 08:19:01;;;;;;;2.90;2.17;;;;;;;;;;765222;182;622664;-79
2023/04/02 08:21:27;;;;;;;3.43;1.63;;;;;;;;;;754300;183;633800;-79
2023/04/02 08:23:53;;;;;;;2.40;1.30;;;;;;;;;;755318;182;625365;-77
2023/04/02 08:26:19;;;;;;;2.67;1.63;;;;;;;;;;766579;183;616734;-78
2023/04/02 08:28:45;;;;;;;2.70;1.60;;;;;;;;;;760189;181;628944;-77
2023/04/02 08:31:12;;;;;;;2.50;1.63;;;;;;;;;;753136;183;635515;-78
2023/04/02 08:33:36;;;;;;;3.30;1.80;;;;;;;;;;762874;182;631288;-79
2023/04/02 08:36:02;;;;;;;4.40;1.77;;;;;;;;;;755661;182;637030;-78
2023/04/02 08:38:28;;;;;;;4.37;1.97;;;;;;;;;;761292;182;649140;-77
2023/04/02 08:40:54;;;;;;;5.90;2.70;;;;;;;;;;763170;183;633054;-77
2023/04/02 08:43:23;;;;;;;5.60;2.90;;;;;;;;;;750303;185;636584;-77
2023/04/02 08:45:53;;;;;;;4.77;3.00;;;;;;;;;;772240;180;627322;-79
2023/04/02 08:48:19;;;;;;;6.47;3.57;;;;;;;;;;766684;181;626402;-79
2023/04/02 08:50:45;;;;;;;4.00;2.83;;;;;;;;;;759467;181;664826;-78
2023/04/02 08:53:13;;;;;;;6.77;3.73;;;;;;;;;;761702;181;637471;-79
2023/04/02 08:55:46;;;;;;;5.07;2.87;;;;;;;;;;765455;181;641988;-76
2023/04/02 08:58:13;;;;;;;4.57;2.33;;;;;;;;;;749937;184;638241;-78
2023/04/02 09:00:39;;;;;;;4.13;2.20;;;;;;;;;;755941;181;637273;-78
2023/04/02 09:03:05;;;;;;;5.07;2.80;;;;;;;;;;751664;184;641399;-78
2023/04/02 09:05:30;;;;;;;5.30;2.20;;;;;;;;;;758502;183;631029;-77
2023/04/02 09:07:56;;;;;;;4.20;2.53;;;;;;;;;;759216;185;628020;-77
2023/04/02 09:10:22;;;;;;;4.30;2.90;;;;;;;;;;759647;183;632819;-79
2023/04/02 09:12:48;;;;;;;4.57;2.50;;;;;;;;;;765363;181;634212;-76
2023/04/02 09:15:17;;;;;;;8.20;5.13;;;;;;;;;;760923;182;648593;-79
2023/04/02 09:17:42;;;;;;;3.80;2.40;;;;;;;;;;762930;183;639733;-78
2023/04/02 09:20:16;;;;;;;6.47;3.50;;;;;;;;;;760922;182;631933;-78
2023/04/02 09:22:39;;;;;;;5.20;2.80;;;;;;;;;;758291;182;636456;-79
2023/04/02 09:25:05;;;;;;;3.03;2.40;;;;;;;;;;761147;184;629159;-77
2023/04/02 09:27:31;;;;;;;4.00;3.10;;;;;;;;;;767005;182;658979;-76
2023/04/02 09:29:59;;;;;;;6.53;4.97;;;;;;;;;;754789;182;812622;-78
2023/04/02 09:32:42;;;;;;;6.10;4.77;;;;;;;;;;753609;184;629718;-77
2023/04/02 09:35:11;;;;;;;7.30;5.37;;;;;;;;;;759273;181;686768;-78
2023/04/02 09:37:36;;;;;;;5.47;3.50;;;;;;;;;;764784;181;632072;-77
2023/04/02 09:40:07;;;;;;;10.23;6.03;;;;;;;;;;767765;180;651276;-77
2023/04/02 09:42:33;;;;;;;15.17;7.77;;;;;;;;;;762610;181;651505;-78
2023/04/02 09:45:04;;;;;;;8.87;6.27;;;;;;;;;;752294;185;639485;-78
2023/04/02 09:47:30;;;;;;;7.40;6.67;;;;;;;;;;767234;182;613781;-76
2023/04/02 09:49:56;;;;;;;7.57;6.70;;;;;;;;;;766445;179;635244;-76
2023/04/02 09:52:26;;;;;;;8.67;6.33;;;;;;;;;;761820;182;654941;-76
2023/04/02 09:54:58;;;;;;;9.20;7.57;;;;;;;;;;767070;182;644009;-76
2023/04/02 09:57:26;;;;;;;14.57;9.00;;;;;;;;;;757956;184;662695;-78
2023/04/02 09:59:55;;;;;;;13.73;8.93;;;;;;;;;;752262;184;636768;-78
2023/04/02 10:02:21;;;;;;;7.13;5.93;;;;;;;;;;757934;182;623736;-78
2023/04/02 10:04:47;;;;;;;7.67;5.40;;;;;;;;;;749409;184;650890;-77
2023/04/02 10:07:18;;;;;;;9.10;7.37;;;;;;;;;;746608;187;615734;-79
2023/04/02 10:09:44;;;;;;;14.70;8.77;;;;;;;;;;742041;183;725418;-76
2023/04/02 10:12:10;;;;;;;9.60;6.13;;;;;;;;;;756950;183;638225;-76
2023/04/02 10:14:36;;;;;;;9.90;8.53;;;;;;;;;;758383;182;631054;-78
2023/04/02 10:17:03;;;;;;;11.40;8.67;;;;;;;;;;760361;182;619622;-78
2023/04/02 10:19:35;;;;;;;10.30;7.30;;;;;;;;;;764492;182;629952;-77
2023/04/02 10:22:04;;;;;;;10.97;7.77;;;;;;;;;;761681;182;656249;-77
2023/04/02 10:24:30;;;;;;;10.00;5.77;;;;;;;;;;763216;182;628129;-78
2023/04/02 10:26:58;;;;;;;12.90;9.77;;;;;;;;;;765529;183;639858;-78
2023/04/02 10:29:27;;;;;;;14.23;6.30;;;;;;;;;;755056;186;629474;-79
2023/04/02 10:31:58;;;;;;;11.00;7.27;;;;;;;;;;742929;186;631064;-77
2023/04/02 10:34:29;;;;;;;10.80;9.03;;;;;;;;;;760897;184;631678;-78
2023/04/02 10:36:56;;;;;;;14.80;8.90;;;;;;;;;;772531;182;615787;-76
2023/04/02 10:39:21;;;;;;;92.47;32.80;;;;;;;;;;764129;180;616727;-77
2023/04/02 10:41:48;;;;;;;29.50;15.87;;;;;;;;;;759602;182;627621;-78
2023/04/02 10:44:29;;;;;;;26.13;15.70;;;;;;;;;;759823;185;614847;-76
2023/04/02 10:46:56;;;;;;;21.33;15.73;;;;;;;;;;760454;184;629015;-76
2023/04/02 10:49:22;;;;;;;14.57;11.07;;;;;;;;;;761228;181;660850;-76
2023/04/02 10:51:48;;;;;;;16.13;10.83;;;;;;;;;;754984;182;628859;-77
2023/04/02 10:54:17;;;;;;;10.90;8.40;;;;;;;;;;758151;184;631089;-78
2023/04/02 10:56:43;;;;;;;11.20;7.87;;;;;;;;;;764197;183;631211;-76
2023/04/02 10:59:27;;;;;;;21.17;11.77;;;;;;;;;;753722;183;635451;-77
2023/04/02 11:01:53;;;;;;;11.10;8.83;;;;;;;;;;754629;182;674451;-78
2023/04/02 11:04:21;;;;;;;12.50;8.03;;;;;;;;;;755026;182;621171;-76
2023/04/02 11:06:48;;;;;;;16.40;11.53;;;;;;;;;;754938;182;614792;-78
2023/04/02 11:09:15;;;;;;;16.20;12.10;;;;;;;;;;751948;183;633382;-77
2023/04/02 11:11:41;;;;;;;11.17;8.67;;;;;;;;;;760276;182;627807;-76
2023/04/02 11:14:08;;;;;;;10.70;6.90;;;;;;;;;;768233;183;631046;-79
2023/04/02 11:16:34;;;;;;;14.03;8.53;;;;;;;;;;765580;181;619643;-78
2023/04/02 11:19:15;;;;;;;11.53;6.80;;;;;;;;;;755309;181;646525;-78
2023/04/02 11:21:41;;;;;;;9.43;7.10;;;;;;;;;;763721;179;626715;-78
2023/04/02 11:24:11;;;;;;;8.83;5.27;;;;;;;;;;763152;183;639849;-77
2023/04/02 11:26:38;;;;;;;13.10;10.40;;;;;;;;;;755051;182;707386;-76
2023/04/02 11:29:04;;;;;;;10.60;7.30;;;;;;;;;;756158;182;632630;-76
2023/04/02 11:31:29;;;;;;;11.87;6.23;;;;;;;;;;755868;181;686512;-79
2023/04/02 11:33:55;;;;;;;14.30;7.57;;;;;;;;;;763524;181;624861;-79
2023/04/02 11:36:27;;;;;;;12.50;6.50;;;;;;;;;;752769;183;636021;-80
2023/04/02 11:38:54;;;;;;;8.90;6.10;;;;;;;;;;755045;182;675082;-81
2023/04/02 11:41:25;;;;;;;5.40;4.20;;;;;;;;;;759838;183;656791;-80
2023/04/02 11:43:50;;;;;;;11.47;5.33;;;;;;;;;;765871;181;653770;-80
2023/04/02 11:46:31;;;;;;;11.13;7.20;;;;;;;;;;764273;181;639332;-80
2023/04/02 11:49:12;;;;;;;25.03;12.03;;;;;;;;;;762922;182;646455;-80
2023/04/02 11:51:53;;;;;;;22.50;13.33;;;;;;;;;;763698;181;632670;-80
2023/04/02 11:54:20;;;;;;;8.83;4.30;;;;;;;;;;763941;181;641442;-81
2023/04/02 11:56:47;;;;;;;7.73;5.90;;;;;;;;;;737889;187;655153;-79
2023/04/02 11:59:18;;;;;;;9.13;4.60;;;;;;;;;;754632;186;633461;-79
2023/04/02 12:01:59;;;;;;;6.63;5.33;;;;;;;;;;765349;182;716699;-79
2023/04/02 12:04:31;;;;;;;5.80;4.57;;;;;;;;;;757856;183;634065;-80
2023/04/02 12:07:02;;;;;;;8.30;5.77;;;;;;;;;;771571;179;662411;-80
2023/04/02 12:09:28;;;;;;;6.50;4.43;;;;;;;;;;764779;179;669243;-79
2023/04/02 12:11:57;;;;;;;11.20;6.67;;;;;;;;;;764399;181;635026;-80
2023/04/02 12:14:30;;;;;;;8.37;5.40;;;;;;;;;;759231;182;623036;-78
2023/04/02 12:16:56;;;;;;;8.80;7.00;;;;;;;;;;751811;182;644572;-79
2023/04/02 12:19:22;;;;;;;11.77;5.60;;;;;;;;;;759153;182;653127;-78
2023/04/02 12:21:48;;;;;;;8.07;6.23;;;;;;;;;;760862;179;629390;-79
2023/04/02 12:24:15;;;;;;;8.90;5.20;;;;;;;;;;769392;181;645291;-79
2023/04/02 12:26:41;;;;;;;8.60;6.40;;;;;;;;;;770693;180;626025;-80
2023/04/02 12:29:12;;;;;;;6.30;5.57;;;;;;;;;;754245;182;681129;-79
2023/04/02 12:31:39;;;;;;;6.93;5.37;;;;;;;;;;759982;182;616088;-78
2023/04/02 12:34:04;;;;;;;7.97;4.63;;;;;;;;;;749738;182;633237;-78
2023/04/02 12:36:30;;;;;;;14.40;7.63;;;;;;;;;;758070;180;632990;-81
2023/04/02 12:38:56;;;;;;;20.20;7.33;;;;;;;;;;758555;182;645000;-79
2023/04/02 12:41:25;;;;;;;15.43;7.90;;;;;;;;;;761502;182;625653;-80
2023/04/02 12:43:57;;;;;;;16.00;10.07;;;;;;;;;;763016;176;634109;-79
2023/04/02 12:46:24;;;;;;;16.53;10.73;;;;;;;;;;758892;182;633421;-80
2023/04/02 12:48:48;;;;;;;14.10;7.90;;;;;;;;;;764856;181;635259;-80
2023/04/02 12:51:14;;;;;;;10.10;7.17;;;;;;;;;;763172;182;629074;-80
2023/04/02 12:53:40;;;;;;;5.70;3.63;;;;;;;;;;759391;182;630311;-80
2023/04/02 12:56:07;;;;;;;5.87;4.70;;;;;;;;;;753451;182;626820;-80
2023/04/02 12:58:35;;;;;;;6.20;4.17;;;;;;;;;;771130;180;628571;-79
2023/04/02 13:01:06;;;;;;;7.83;5.17;;;;;;;;;;759159;179;632742;-80
2023/04/02 13:03:32;;;;;;;7.77;4.13;;;;;;;;;;758893;181;624054;-80
2023/04/02 13:05:58;;;;;;;9.63;8.50;;;;;;;;;;763862;181;638411;-81
2023/04/02 13:08:25;;;;;;;9.10;4.77;;;;;;;;;;767428;181;661846;-80
2023/04/02 13:10:52;;;;;;;10.40;5.90;;;;;;;;;;760995;181;733888;-80
2023/04/02 13:13:18;;;;;;;7.00;4.60;;;;;;;;;;765931;182;633467;-79
2023/04/02 13:15:45;;;;;;;8.90;6.40;;;;;;;;;;765900;183;616541;-78
2023/04/02 13:18:19;;;;;;;12.30;7.30;;;;;;;;;;763520;181;654597;-80
2023/04/02 13:20:51;;;;;;;28.33;13.77;;;;;;;;;;763792;180;633256;-80
2023/04/02 13:23:22;;;;;;;9.30;6.03;;;;;;;;;;750077;184;628616;-79
2023/04/02 13:25:48;;;;;;;10.97;5.90;;;;;;;;;;750897;183;766725;-80
2023/04/02 13:28:13;;;;;;;15.27;7.73;;;;;;;;;;764425;184;626252;-81
2023/04/02 13:30:39;;;;;;;8.20;6.57;;;;;;;;;;756603;182;639048;-79
2023/04/02 13:33:05;;;;;;;7.27;5.23;;;;;;;;;;757833;181;656256;-80
2023/04/02 13:35:31;;;;;;;10.23;6.80;;;;;;;;;;759551;182;627639;-80
2023/04/02 13:37:57;;;;;;;7.00;4.70;;;;;;;;;;759540;182;637208;-79
2023/04/02 13:40:23;;;;;;;10.80;5.73;;;;;;;;;;763262;182;642170;-80
2023/04/02 13:42:49;;;;;;;10.60;4.83;;;;;;;;;;760436;182;629832;-79
2023/04/02 13:45:20;;;;;;;14.07;5.73;;;;;;;;;;757452;184;633478;-79
2023/04/02 13:47:46;;;;;;;7.97;5.23;;;;;;;;;;756000;182;651794;-80
2023/04/02 13:50:15;;;;;;;12.67;8.47;;;;;;;;;;750486;184;624938;-80
2023/04/02 13:52:41;;;;;;;8.37;5.70;;;;;;;;;;761691;182;621776;-81
2023/04/02 13:55:07;;;;;;;10.90;6.77;;;;;;;;;;760961;181;625588;-78
2023/04/02 13:57:33;;;;;;;8.87;5.20;;;;;;;;;;765153;181;662646;-80
2023/04/02 13:59:59;;;;;;;9.40;6.73;;;;;;;;;;761451;184;634877;-81
2023/04/02 14:02:24;;;;;;;12.40;7.40;;;;;;;;;;757051;183;646062;-80
2023/04/02 14:04:52;;;;;;;7.67;4.60;;;;;;;;;;762333;182;626336;-79
2023/04/02 14:07:21;;;;;;;8.87;6.20;;;;;;;;;;761741;182;641676;-81
2023/04/02 14:09:50;;;;;;;11.07;7.23;;;;;;;;;;765769;182;644674;-80
2023/04/02 14:12:20;;;;;;;7.40;5.23;;;;;;;;;;763383;181;621801;-80
2023/04/02 14:15:01;;;;;;;9.67;5.97;;;;;;;;;;763750;181;647026;-81
2023/04/02 14:17:46;;;;;;;8.10;5.90;;;;;;;;;;767205;181;634247;-80
2023/04/02 14:20:23;;;;;;;9.40;6.00;;;;;;;;;;754417;181;624778;-80
2023/04/02 14:22:50;;;;;;;8.57;4.80;;;;;;;;;;756190;184;718983;-80